sensor_id;sensor_type;location;lat;lon;timestamp;pressure;altitude;pressure_sealevel;temperature;humidity
73103;BME280;61294;65.988;29.172;2023-12-14T00:01:34;98554.03;;;-13.99;100.00
73103;BME280;61294;65.988;29.172;2023-12-14T00:03:59;98600.19;;;-13.82;100.00
73103;BME280;61294;65.988;29.172;2023-12-14T00:06:25;98592.34;;;-13.85;100.00
73103;BME280;61294;65.988;29.172;2023-12-14T00:08:51;98600.97;;;-13.83;100.00
73103;BME280;61294;65.988;29.172;2023-12-14T00:11:17;98592.00;;;-13.80;100.00
73103;BME280;61294;65.988;29.172;2023-12-14T00:13:43;98576.22;;;-13.96;100.00
73103;BME280;61294;65.988;29.172;2023-12-14T00:16:09;98556.84;;;-13.96;100.00
73103;BME280;61294;65.988;29.172;2023-12-14T00:18:35;98592.41;;;-13.75;100.00
73103;BME280;61294;65.988;29.172;2023-12-14T00:21:01;98551.78;;;-13.96;100.00
73103;BME280;61294;65.988;29.172;2023-12-14T00:23:27;98535.75;;;-14.05;100.00
73103;BME280;61294;65.988;29.172;2023-12-14T00:25:53;98555.44;;;-13.92;100.00
73103;BME280;61294;65.988;29.172;2023-12-14T00:28:19;98552.31;;;-13.90;100.00
73103;BME280;61294;65.988;29.172;2023-12-14T00:30:45;98591.91;;;-13.71;100.00
73103;BME280;61294;65.988;29.172;2023-12-14T00:33:11;98553.06;;;-13.91;100.00
73103;BME280;61294;65.988;29.172;2023-12-14T00:35:36;98560.03;;;-13.88;100.00
73103;BME280;61294;65.988;29.172;2023-12-14T00:38:02;98601.31;;;-13.70;100.00
73103;BME280;61294;65.988;29.172;2023-12-14T00:40:28;98597.25;;;-13.68;100.00
73103;BME280;61294;65.988;29.172;2023-12-14T00:42:54;98586.59;;;-13.74;100.00
73103;BME280;61294;65.988;29.172;2023-12-14T00:45:20;98605.75;;;-13.67;100.00
73103;BME280;61294;65.988;29.172;2023-12-14T00:47:45;98609.31;;;-13.65;100.00
73103;BME280;61294;65.988;29.172;2023-12-14T00:50:11;98614.22;;;-13.67;100.00
73103;BME280;61294;65.988;29.172;2023-12-14T00:52:37;98603.50;;;-13.64;100.00
73103;BME280;61294;65.988;29.172;2023-12-14T00:55:03;98596.09;;;-13.72;100.00
73103;BME280;61294;65.988;29.172;2023-12-14T00:57:29;98585.56;;;-13.76;100.00
73103;BME280;61294;65.988;29.172;2023-12-14T00:59:55;98578.59;;;-13.79;100.00
73103;BME280;61294;65.988;29.172;2023-12-14T01:02:21;98596.38;;;-13.68;100.00
73103;BME280;61294;65.988;29.172;2023-12-14T01:04:47;98607.59;;;-13.56;100.00
73103;BME280;61294;65.988;29.172;2023-12-14T01:07:13;98605.06;;;-13.56;100.00
73103;BME280;61294;65.988;29.172;2023-12-14T01:09:38;98604.94;;;-13.58;100.00
73103;BME280;61294;65.988;29.172;2023-12-14T01:12:04;98609.34;;;-13.55;100.00
73103;BME280;61294;65.988;29.172;2023-12-14T01:14:30;98609.34;;;-13.55;100.00
73103;BME280;61294;65.988;29.172;2023-12-14T01:16:56;98598.47;;;-13.54;100.00
73103;BME280;61294;65.988;29.172;2023-12-14T01:19:22;98600.38;;;-13.51;100.00
73103;BME280;61294;65.988;29.172;2023-12-14T01:21:48;98586.84;;;-13.52;100.00
73103;BME280;61294;65.988;29.172;2023-12-14T01:24:13;98596.50;;;-13.48;100.00
73103;BME280;61294;65.988;29.172;2023-12-14T01:26:40;98601.56;;;-13.48;100.00
73103;BME280;61294;65.988;29.172;2023-12-14T01:29:05;98601.69;;;-13.46;100.00
73103;BME280;61294;65.988;29.172;2023-12-14T01:31:31;98590.50;;;-13.48;100.00
73103;BME280;61294;65.988;29.172;2023-12-14T01:33:57;98599.03;;;-13.48;100.00
73103;BME280;61294;65.988;29.172;2023-12-14T01:36:24;98604.97;;;-13.47;100.00
73103;BME280;61294;65.988;29.172;2023-12-14T01:38:50;98600.31;;;-13.43;100.00
73103;BME280;61294;65.988;29.172;2023-12-14T01:41:17;98549.28;;;-13.66;100.00
73103;BME280;61294;65.988;29.172;2023-12-14T01:43:43;98594.63;;;-13.40;100.00
73103;BME280;61294;65.988;29.172;2023-12-14T01:46:09;98599.94;;;-13.37;100.00
73103;BME280;61294;65.988;29.172;2023-12-14T01:48:35;98598.56;;;-13.33;100.00
73103;BME280;61294;65.988;29.172;2023-12-14T01:51:01;98602.09;;;-13.31;100.00
73103;BME280;61294;65.988;29.172;2023-12-14T01:53:26;98576.88;;;-13.40;100.00
73103;BME280;61294;65.988;29.172;2023-12-14T01:55:52;98588.53;;;-13.32;100.00
73103;BME280;61294;65.988;29.172;2023-12-14T01:58:18;98562.78;;;-13.47;100.00
73103;BME280;61294;65.988;29.172;2023-12-14T02:03:28;98593.75;;;-13.30;100.00
73103;BME280;61294;65.988;29.172;2023-12-14T02:05:54;98571.94;;;-13.39;100.00
73103;BME280;61294;65.988;29.172;2023-12-14T02:08:20;98550.25;;;-13.45;100.00
73103;BME280;61294;65.988;29.172;2023-12-14T02:10:46;98562.41;;;-13.41;100.00
73103;BME280;61294;65.988;29.172;2023-12-14T02:13:13;98587.94;;;-13.29;100.00
73103;BME280;61294;65.988;29.172;2023-12-14T02:15:39;98583.72;;;-13.29;100.00
73103;BME280;61294;65.988;29.172;2023-12-14T02:18:05;98590.59;;;-13.28;100.00
73103;BME280;61294;65.988;29.172;2023-12-14T02:20:30;98577.13;;;-13.27;100.00
73103;BME280;61294;65.988;29.172;2023-12-14T02:22:56;98586.28;;;-13.29;100.00
73103;BME280;61294;65.988;29.172;2023-12-14T02:25:23;98575.50;;;-13.26;100.00
73103;BME280;61294;65.988;29.172;2023-12-14T02:27:50;98582.34;;;-13.25;100.00
73103;BME280;61294;65.988;29.172;2023-12-14T02:30:17;98573.59;;;-13.29;100.00
73103;BME280;61294;65.988;29.172;2023-12-14T02:32:43;98545.59;;;-13.41;100.00
73103;BME280;61294;65.988;29.172;2023-12-14T02:35:09;98589.31;;;-13.23;100.00
73103;BME280;61294;65.988;29.172;2023-12-14T02:37:35;98585.28;;;-13.21;100.00
73103;BME280;61294;65.988;29.172;2023-12-14T02:40:08;98588.84;;;-13.19;100.00
73103;BME280;61294;65.988;29.172;2023-12-14T02:42:34;98584.94;;;-13.15;100.00
73103;BME280;61294;65.988;29.172;2023-12-14T02:45:00;98573.63;;;-13.19;100.00
73103;BME280;61294;65.988;29.172;2023-12-14T02:47:28;98587.59;;;-13.13;100.00
73103;BME280;61294;65.988;29.172;2023-12-14T02:49:55;98579.09;;;-13.14;100.00
73103;BME280;61294;65.988;29.172;2023-12-14T02:52:21;98544.84;;;-13.29;100.00
73103;BME280;61294;65.988;29.172;2023-12-14T02:54:47;98579.38;;;-13.11;100.00
73103;BME280;61294;65.988;29.172;2023-12-14T02:57:13;98581.91;;;-13.11;100.00
73103;BME280;61294;65.988;29.172;2023-12-14T02:59:39;98578.72;;;-13.08;100.00
73103;BME280;61294;65.988;29.172;2023-12-14T03:02:05;98571.78;;;-13.11;100.00
73103;BME280;61294;65.988;29.172;2023-12-14T03:04:31;98572.66;;;-13.10;100.00
73103;BME280;61294;65.988;29.172;2023-12-14T03:06:57;98556.50;;;-13.21;100.00
73103;BME280;61294;65.988;29.172;2023-12-14T03:09:30;98591.53;;;-13.07;100.00
73103;BME280;61294;65.988;29.172;2023-12-14T03:11:56;98594.50;;;-13.02;100.00
73103;BME280;61294;65.988;29.172;2023-12-14T03:14:22;98598.78;;;-13.01;100.00
73103;BME280;61294;65.988;29.172;2023-12-14T03:16:48;98586.75;;;-13.04;100.00
73103;BME280;61294;65.988;29.172;2023-12-14T03:19:17;98595.88;;;-12.95;100.00
73103;BME280;61294;65.988;29.172;2023-12-14T03:21:43;98597.66;;;-12.94;100.00
73103;BME280;61294;65.988;29.172;2023-12-14T03:24:09;98597.66;;;-12.94;100.00
73103;BME280;61294;65.988;29.172;2023-12-14T03:26:35;98592.72;;;-12.93;100.00
73103;BME280;61294;65.988;29.172;2023-12-14T03:29:01;98595.25;;;-12.93;100.00
73103;BME280;61294;65.988;29.172;2023-12-14T03:31:27;98587.25;;;-12.97;100.00
73103;BME280;61294;65.988;29.172;2023-12-14T03:33:53;98582.44;;;-12.94;100.00
73103;BME280;61294;65.988;29.172;2023-12-14T03:36:19;98587.66;;;-12.93;100.00
73103;BME280;61294;65.988;29.172;2023-12-14T03:38:44;98596.66;;;-12.96;100.00
73103;BME280;61294;65.988;29.172;2023-12-14T03:41:10;98588.13;;;-12.97;100.00
73103;BME280;61294;65.988;29.172;2023-12-14T03:43:36;98600.06;;;-12.96;100.00
73103;BME280;61294;65.988;29.172;2023-12-14T03:46:02;98592.34;;;-12.97;100.00
73103;BME280;61294;65.988;29.172;2023-12-14T03:48:28;98580.78;;;-13.04;100.00
73103;BME280;61294;65.988;29.172;2023-12-14T03:50:53;98583.31;;;-12.94;100.00
73103;BME280;61294;65.988;29.172;2023-12-14T03:53:19;98544.25;;;-13.16;100.00
73103;BME280;61294;65.988;29.172;2023-12-14T03:55:46;98589.06;;;-12.96;100.00
73103;BME280;61294;65.988;29.172;2023-12-14T03:58:11;98565.44;;;-13.06;100.00
73103;BME280;61294;65.988;29.172;2023-12-14T04:00:37;98602.00;;;-12.93;100.00
73103;BME280;61294;65.988;29.172;2023-12-14T04:03:03;98600.06;;;-12.96;100.00
73103;BME280;61294;65.988;29.172;2023-12-14T04:05:29;98575.19;;;-13.00;100.00
73103;BME280;61294;65.988;29.172;2023-12-14T04:07:54;98575.94;;;-13.01;100.00
73103;BME280;61294;65.988;29.172;2023-12-14T04:10:20;98587.25;;;-12.97;100.00
73103;BME280;61294;65.988;29.172;2023-12-14T04:12:46;98584.59;;;-12.99;100.00
73103;BME280;61294;65.988;29.172;2023-12-14T04:15:12;98590.53;;;-12.98;100.00
73103;BME280;61294;65.988;29.172;2023-12-14T04:17:37;98583.72;;;-12.99;100.00
73103;BME280;61294;65.988;29.172;2023-12-14T04:20:04;98591.16;;;-13.01;100.00
73103;BME280;61294;65.988;29.172;2023-12-14T04:22:31;98554.78;;;-13.12;100.00
73103;BME280;61294;65.988;29.172;2023-12-14T04:24:57;98568.09;;;-13.04;100.00
73103;BME280;61294;65.988;29.172;2023-12-14T04:27:23;98575.19;;;-13.00;100.00
73103;BME280;61294;65.988;29.172;2023-12-14T04:29:54;98582.94;;;-12.98;100.00
73103;BME280;61294;65.988;29.172;2023-12-14T04:32:20;98583.97;;;-12.96;100.00
73103;BME280;61294;65.988;29.172;2023-12-14T04:34:46;98589.06;;;-12.96;100.00
73103;BME280;61294;65.988;29.172;2023-12-14T04:37:11;98575.47;;;-12.97;100.00
73103;BME280;61294;65.988;29.172;2023-12-14T04:39:37;98582.81;;;-13.00;100.00
73103;BME280;61294;65.988;29.172;2023-12-14T04:42:03;98591.34;;;-12.99;100.00
73103;BME280;61294;65.988;29.172;2023-12-14T04:44:30;98589.41;;;-13.02;100.00
73103;BME280;61294;65.988;29.172;2023-12-14T04:46:56;98586.75;;;-13.04;100.00
73103;BME280;61294;65.988;29.172;2023-12-14T04:49:22;98590.91;;;-13.04;100.00
73103;BME280;61294;65.988;29.172;2023-12-14T04:51:48;98590.78;;;-13.06;100.00
73103;BME280;61294;65.988;29.172;2023-12-14T04:54:14;98577.72;;;-13.10;100.00
73103;BME280;61294;65.988;29.172;2023-12-14T04:56:40;98596.53;;;-12.98;100.00
73103;BME280;61294;65.988;29.172;2023-12-14T04:59:07;98580.50;;;-13.07;100.00
73103;BME280;61294;65.988;29.172;2023-12-14T05:01:33;98599.31;;;-13.05;100.00
73103;BME280;61294;65.988;29.172;2023-12-14T05:03:59;98603.81;;;-13.11;100.00
73103;BME280;61294;65.988;29.172;2023-12-14T05:06:25;98605.97;;;-13.16;100.00
73103;BME280;61294;65.988;29.172;2023-12-14T05:08:51;98599.19;;;-13.26;100.00
73103;BME280;61294;65.988;29.172;2023-12-14T05:11:17;98607.69;;;-13.25;100.00
73103;BME280;61294;65.988;29.172;2023-12-14T05:13:43;98604.16;;;-13.27;100.00
73103;BME280;61294;65.988;29.172;2023-12-14T05:16:18;98607.28;;;-13.30;100.00
73103;BME280;61294;65.988;29.172;2023-12-14T05:18:44;98610.56;;;-13.31;100.00
73103;BME280;61294;65.988;29.172;2023-12-14T05:21:16;98618.03;;;-13.32;100.00
73103;BME280;61294;65.988;29.172;2023-12-14T05:23:43;98611.22;;;-13.33;100.00
73103;BME280;61294;65.988;29.172;2023-12-14T05:26:08;98608.69;;;-13.33;100.00
73103;BME280;61294;65.988;29.172;2023-12-14T05:28:34;98615.03;;;-13.28;100.00
73103;BME280;61294;65.988;29.172;2023-12-14T05:31:00;98601.47;;;-13.29;100.00
73103;BME280;61294;65.988;29.172;2023-12-14T05:33:26;98615.16;;;-13.27;100.00
73103;BME280;61294;65.988;29.172;2023-12-14T05:35:52;98618.00;;;-13.24;100.00
73103;BME280;61294;65.988;29.172;2023-12-14T05:38:19;98619.75;;;-13.23;100.00
73103;BME280;61294;65.988;29.172;2023-12-14T05:40:45;98611.66;;;-13.19;100.00
73103;BME280;61294;65.988;29.172;2023-12-14T05:43:11;98616.47;;;-13.22;100.00
73103;BME280;61294;65.988;29.172;2023-12-14T05:45:37;98614.31;;;-13.17;100.00
73103;BME280;61294;65.988;29.172;2023-12-14T05:48:03;98609.25;;;-13.17;100.00
73103;BME280;61294;65.988;29.172;2023-12-14T05:50:31;98604.44;;;-13.14;100.00
73103;BME280;61294;65.988;29.172;2023-12-14T05:52:57;98601.91;;;-13.14;100.00
73103;BME280;61294;65.988;29.172;2023-12-14T05:55:24;98598.50;;;-13.14;100.00
73103;BME280;61294;65.988;29.172;2023-12-14T05:57:50;98574.13;;;-13.23;100.00
73103;BME280;61294;65.988;29.172;2023-12-14T06:00:18;98587.69;;;-13.22;100.00
73103;BME280;61294;65.988;29.172;2023-12-14T06:02:43;98592.81;;;-13.12;100.00
73103;BME280;61294;65.988;29.172;2023-12-14T06:05:11;98557.91;;;-13.25;100.00
73103;BME280;61294;65.988;29.172;2023-12-14T06:07:38;98602.59;;;-13.06;100.00
73103;BME280;61294;65.988;29.172;2023-12-14T06:10:04;98603.59;;;-13.04;100.00
73103;BME280;61294;65.988;29.172;2023-12-14T06:12:30;98601.06;;;-13.04;100.00
73103;BME280;61294;65.988;29.172;2023-12-14T06:14:56;98590.66;;;-13.07;100.00
73103;BME280;61294;65.988;29.172;2023-12-14T06:17:22;98574.66;;;-13.16;100.00
73103;BME280;61294;65.988;29.172;2023-12-14T06:19:48;98612.63;;;-12.97;100.00
73103;BME280;61294;65.988;29.172;2023-12-14T06:22:15;98610.22;;;-12.96;100.00
73103;BME280;61294;65.988;29.172;2023-12-14T06:24:41;98607.81;;;-12.94;100.00
73103;BME280;61294;65.988;29.172;2023-12-14T06:27:08;98616.47;;;-12.92;100.00
73103;BME280;61294;65.988;29.172;2023-12-14T06:29:34;98612.50;;;-12.89;100.00
73103;BME280;61294;65.988;29.172;2023-12-14T06:32:00;98615.31;;;-12.86;100.00
73103;BME280;61294;65.988;29.172;2023-12-14T06:34:27;98618.88;;;-12.83;100.00
73103;BME280;61294;65.988;29.172;2023-12-14T06:36:53;98623.47;;;-12.79;100.00
73103;BME280;61294;65.988;29.172;2023-12-14T06:39:20;98624.34;;;-12.79;100.00
73103;BME280;61294;65.988;29.172;2023-12-14T06:41:46;98612.41;;;-12.80;100.00
73103;BME280;61294;65.988;29.172;2023-12-14T06:44:14;98620.63;;;-12.82;100.00
73103;BME280;61294;65.988;29.172;2023-12-14T06:46:40;98620.16;;;-12.78;100.00
73103;BME280;61294;65.988;29.172;2023-12-14T06:49:05;98627.88;;;-12.77;100.00
73103;BME280;61294;65.988;29.172;2023-12-14T06:51:31;98628.44;;;-12.71;100.00
73103;BME280;61294;65.988;29.172;2023-12-14T06:53:57;98638.59;;;-12.71;100.00
73103;BME280;61294;65.988;29.172;2023-12-14T06:56:23;98632.09;;;-12.67;100.00
73103;BME280;61294;65.988;29.172;2023-12-14T06:58:48;98634.63;;;-12.67;100.00
73103;BME280;61294;65.988;29.172;2023-12-14T07:01:18;98638.97;;;-12.66;100.00
73103;BME280;61294;65.988;29.172;2023-12-14T07:03:44;98634.00;;;-12.64;100.00
73103;BME280;61294;65.988;29.172;2023-12-14T07:06:18;98622.19;;;-12.74;100.00
73103;BME280;61294;65.988;29.172;2023-12-14T07:08:44;98632.50;;;-12.62;100.00
73103;BME280;61294;65.988;29.172;2023-12-14T07:11:11;98596.69;;;-12.86;100.00
73103;BME280;61294;65.988;29.172;2023-12-14T07:13:38;98625.03;;;-12.61;100.00
73103;BME280;61294;65.988;29.172;2023-12-14T07:16:06;98618.53;;;-12.68;100.00
73103;BME280;61294;65.988;29.172;2023-12-14T07:18:34;98624.38;;;-12.69;100.00
73103;BME280;61294;65.988;29.172;2023-12-14T07:21:01;98643.81;;;-12.59;100.00
73103;BME280;61294;65.988;29.172;2023-12-14T07:23:27;98646.34;;;-12.59;100.00
73103;BME280;61294;65.988;29.172;2023-12-14T07:25:53;98639.72;;;-12.57;100.00
73103;BME280;61294;65.988;29.172;2023-12-14T07:28:20;98636.31;;;-12.57;100.00
73103;BME280;61294;65.988;29.172;2023-12-14T07:30:46;98604.44;;;-12.74;100.00
73103;BME280;61294;65.988;29.172;2023-12-14T07:33:12;98608.75;;;-12.73;100.00
73103;BME280;61294;65.988;29.172;2023-12-14T07:35:38;98615.88;;;-12.69;100.00
73103;BME280;61294;65.988;29.172;2023-12-14T07:38:04;98634.81;;;-12.55;100.00
73103;BME280;61294;65.988;29.172;2023-12-14T07:40:29;98639.22;;;-12.53;100.00
73103;BME280;61294;65.988;29.172;2023-12-14T07:42:55;98631.75;;;-12.51;100.00
73103;BME280;61294;65.988;29.172;2023-12-14T07:45:21;98620.47;;;-12.55;100.00
73103;BME280;61294;65.988;29.172;2023-12-14T07:47:47;98599.91;;;-12.68;100.00
73103;BME280;61294;65.988;29.172;2023-12-14T07:50:13;98635.44;;;-12.47;100.00
73103;BME280;61294;65.988;29.172;2023-12-14T07:52:39;98639.91;;;-12.45;100.00
73103;BME280;61294;65.988;29.172;2023-12-14T07:55:06;98642.56;;;-12.43;100.00
73103;BME280;61294;65.988;29.172;2023-12-14T07:57:32;98639.00;;;-12.45;100.00
73103;BME280;61294;65.988;29.172;2023-12-14T07:59:58;98610.31;;;-12.65;100.00
73103;BME280;61294;65.988;29.172;2023-12-14T08:02:24;98641.41;;;-12.47;100.00
73103;BME280;61294;65.988;29.172;2023-12-14T08:04:49;98641.41;;;-12.47;100.00
73103;BME280;61294;65.988;29.172;2023-12-14T08:07:15;98645.84;;;-12.44;100.00
73103;BME280;61294;65.988;29.172;2023-12-14T08:09:41;98643.31;;;-12.44;100.00
73103;BME280;61294;65.988;29.172;2023-12-14T08:12:07;98634.28;;;-12.51;100.00
73103;BME280;61294;65.988;29.172;2023-12-14T08:14:33;98644.22;;;-12.44;100.00
73103;BME280;61294;65.988;29.172;2023-12-14T08:17:01;98647.66;;;-12.43;100.00
73103;BME280;61294;65.988;29.172;2023-12-14T08:19:27;98648.66;;;-12.41;100.00
73103;BME280;61294;65.988;29.172;2023-12-14T08:21:53;98661.34;;;-12.41;100.00
73103;BME280;61294;65.988;29.172;2023-12-14T08:24:19;98660.34;;;-12.43;100.00
73103;BME280;61294;65.988;29.172;2023-12-14T08:26:44;98665.41;;;-12.43;100.00
73103;BME280;61294;65.988;29.172;2023-12-14T08:29:10;98666.16;;;-12.44;100.00
73103;BME280;61294;65.988;29.172;2023-12-14T08:31:36;98646.47;;;-12.57;100.00
73103;BME280;61294;65.988;29.172;2023-12-14T08:34:02;98665.16;;;-12.46;100.00
73103;BME280;61294;65.988;29.172;2023-12-14T08:36:29;98665.66;;;-12.51;100.00
73103;BME280;61294;65.988;29.172;2023-12-14T08:38:55;98671.84;;;-12.57;100.00
73103;BME280;61294;65.988;29.172;2023-12-14T08:41:21;98651.13;;;-12.72;100.00
73103;BME280;61294;65.988;29.172;2023-12-14T08:43:46;98671.97;;;-12.56;100.00
73103;BME280;61294;65.988;29.172;2023-12-14T08:46:12;98673.13;;;-12.52;100.00
73103;BME280;61294;65.988;29.172;2023-12-14T08:48:38;98661.69;;;-12.57;100.00
73103;BME280;61294;65.988;29.172;2023-12-14T08:51:05;98671.97;;;-12.56;100.00
73103;BME280;61294;65.988;29.172;2023-12-14T08:53:31;98633.97;;;-12.85;100.00
73103;BME280;61294;65.988;29.172;2023-12-14T08:55:57;98676.41;;;-12.63;100.00
73103;BME280;61294;65.988;29.172;2023-12-14T08:58:22;98672.19;;;-12.63;100.00
73103;BME280;61294;65.988;29.172;2023-12-14T09:00:48;98677.03;;;-12.56;100.00
73103;BME280;61294;65.988;29.172;2023-12-14T09:03:21;98681.75;;;-12.50;100.00
73103;BME280;61294;65.988;29.172;2023-12-14T09:05:47;98686.97;;;-12.48;100.00
73103;BME280;61294;65.988;29.172;2023-12-14T09:08:13;98655.13;;;-12.55;100.00
73103;BME280;61294;65.988;29.172;2023-12-14T09:10:39;98678.22;;;-12.52;100.00
73103;BME280;61294;65.988;29.172;2023-12-14T09:13:05;98673.00;;;-12.54;100.00
73103;BME280;61294;65.988;29.172;2023-12-14T09:15:32;98666.16;;;-12.55;100.00
73103;BME280;61294;65.988;29.172;2023-12-14T09:17:58;98665.91;;;-12.47;100.00
73103;BME280;61294;65.988;29.172;2023-12-14T09:20:23;98674.81;;;-12.42;100.00
73103;BME280;61294;65.988;29.172;2023-12-14T09:22:49;98663.63;;;-12.44;100.00
73103;BME280;61294;65.988;29.172;2023-12-14T09:25:16;98686.91;;;-12.29;100.00
73103;BME280;61294;65.988;29.172;2023-12-14T09:27:42;98692.09;;;-12.28;100.00
73103;BME280;61294;65.988;29.172;2023-12-14T09:30:08;98687.91;;;-12.27;100.00
73103;BME280;61294;65.988;29.172;2023-12-14T09:32:34;98683.31;;;-12.21;100.00
73103;BME280;61294;65.988;29.172;2023-12-14T09:35:00;98686.78;;;-12.21;100.00
73103;BME280;61294;65.988;29.172;2023-12-14T09:37:26;98687.78;;;-12.19;100.00
73103;BME280;61294;65.988;29.172;2023-12-14T09:39:52;98657.31;;;-12.39;100.00
73103;BME280;61294;65.988;29.172;2023-12-14T09:42:19;98685.38;;;-12.17;100.00
73103;BME280;61294;65.988;29.172;2023-12-14T09:44:47;98682.06;;;-12.16;100.00
73103;BME280;61294;65.988;29.172;2023-12-14T09:47:13;98678.91;;;-12.13;100.00
73103;BME280;61294;65.988;29.172;2023-12-14T09:49:41;98683.75;;;-12.17;100.00
73103;BME280;61294;65.988;29.172;2023-12-14T09:52:09;98685.00;;;-12.22;100.00
73103;BME280;61294;65.988;29.172;2023-12-14T09:54:35;98686.91;;;-12.19;100.00
73103;BME280;61294;65.988;29.172;2023-12-14T09:57:01;98686.91;;;-12.19;100.00
73103;BME280;61294;65.988;29.172;2023-12-14T09:59:26;98688.69;;;-12.18;100.00
73103;BME280;61294;65.988;29.172;2023-12-14T10:01:52;98670.25;;;-12.26;100.00
73103;BME280;61294;65.988;29.172;2023-12-14T10:04:19;98664.56;;;-12.23;100.00
73103;BME280;61294;65.988;29.172;2023-12-14T10:06:49;98663.00;;;-12.21;100.00
73103;BME280;61294;65.988;29.172;2023-12-14T10:09:15;98657.06;;;-12.22;100.00
73103;BME280;61294;65.988;29.172;2023-12-14T10:11:49;98665.97;;;-12.17;100.00
73103;BME280;61294;65.988;29.172;2023-12-14T10:14:26;98669.63;;;-12.13;100.00
73103;BME280;61294;65.988;29.172;2023-12-14T10:16:53;98685.53;;;-12.05;100.00
73103;BME280;61294;65.988;29.172;2023-12-14T10:19:19;98679.66;;;-12.04;100.00
73103;BME280;61294;65.988;29.172;2023-12-14T10:21:49;98681.47;;;-12.03;100.00
73103;BME280;61294;65.988;29.172;2023-12-14T10:24:16;98662.94;;;-12.12;100.00
73103;BME280;61294;65.988;29.172;2023-12-14T10:26:44;98685.78;;;-12.02;100.00
73103;BME280;61294;65.988;29.172;2023-12-14T10:29:11;98668.63;;;-12.05;100.00
73103;BME280;61294;65.988;29.172;2023-12-14T10:31:36;98684.25;;;-12.00;100.00
73103;BME280;61294;65.988;29.172;2023-12-14T10:34:06;98682.63;;;-12.00;100.00
73103;BME280;61294;65.988;29.172;2023-12-14T10:36:32;98680.06;;;-12.00;100.00
73103;BME280;61294;65.988;29.172;2023-12-14T10:39:00;98665.09;;;-12.07;100.00
73103;BME280;61294;65.988;29.172;2023-12-14T10:41:26;98661.25;;;-12.02;100.00
73103;BME280;61294;65.988;29.172;2023-12-14T10:43:55;98626.09;;;-12.28;100.00
73103;BME280;61294;65.988;29.172;2023-12-14T10:46:25;98672.69;;;-11.96;100.00
73103;BME280;61294;65.988;29.172;2023-12-14T10:48:53;98683.75;;;-11.96;100.00
73103;BME280;61294;65.988;29.172;2023-12-14T10:51:23;98684.38;;;-11.99;100.00
73103;BME280;61294;65.988;29.172;2023-12-14T10:53:49;98663.03;;;-12.01;100.00
73103;BME280;61294;65.988;29.172;2023-12-14T10:56:17;98666.34;;;-12.02;100.00
73103;BME280;61294;65.988;29.172;2023-12-14T10:58:47;98656.19;;;-12.02;100.00
73103;BME280;61294;65.988;29.172;2023-12-14T11:01:19;98659.75;;;-12.00;100.00
73103;BME280;61294;65.988;29.172;2023-12-14T11:03:47;98675.88;;;-11.99;100.00
73103;BME280;61294;65.988;29.172;2023-12-14T11:06:35;98679.41;;;-11.97;100.00
73103;BME280;61294;65.988;29.172;2023-12-14T11:09:05;98654.56;;;-12.01;100.00
73103;BME280;61294;65.988;29.172;2023-12-14T11:11:47;98666.19;;;-11.93;100.00
73103;BME280;61294;65.988;29.172;2023-12-14T11:14:26;98595.22;;;-12.33;100.00
73103;BME280;61294;65.988;29.172;2023-12-14T11:17:06;98592.84;;;-12.31;100.00
73103;BME280;61294;65.988;29.172;2023-12-14T11:19:32;98643.59;;;-12.00;100.00
73103;BME280;61294;65.988;29.172;2023-12-14T11:24:31;98644.50;;;-12.00;100.00
73103;BME280;61294;65.988;29.172;2023-12-14T11:26:57;98662.88;;;-11.92;100.00
73103;BME280;61294;65.988;29.172;2023-12-14T11:29:22;98658.69;;;-11.91;100.00
73103;BME280;61294;65.988;29.172;2023-12-14T11:31:48;98669.75;;;-11.91;100.00
73103;BME280;61294;65.988;29.172;2023-12-14T11:34:17;98633.69;;;-12.07;100.00
73103;BME280;61294;65.988;29.172;2023-12-14T11:36:43;98668.72;;;-11.93;100.00
73103;BME280;61294;65.988;29.172;2023-12-14T11:39:11;98679.28;;;-11.88;100.00
73103;BME280;61294;65.988;29.172;2023-12-14T11:41:37;98677.75;;;-11.86;100.00
73103;BME280;61294;65.988;29.172;2023-12-14T11:44:04;98678.38;;;-11.89;100.00
73103;BME280;61294;65.988;29.172;2023-12-14T11:46:30;98679.41;;;-11.87;100.00
73103;BME280;61294;65.988;29.172;2023-12-14T11:48:58;98665.41;;;-11.92;100.00
73103;BME280;61294;65.988;29.172;2023-12-14T11:51:24;98681.28;;;-11.84;100.00
73103;BME280;61294;65.988;29.172;2023-12-14T11:53:52;98675.31;;;-11.85;100.00
73103;BME280;61294;65.988;29.172;2023-12-14T11:56:19;98678.63;;;-11.86;100.00
73103;BME280;61294;65.988;29.172;2023-12-14T11:58:45;98679.13;;;-11.90;100.00
73103;BME280;61294;65.988;29.172;2023-12-14T12:01:15;98670.16;;;-11.96;100.00
73103;BME280;61294;65.988;29.172;2023-12-14T12:03:42;98694.53;;;-11.88;100.00
73103;BME280;61294;65.988;29.172;2023-12-14T12:06:23;98679.69;;;-11.94;100.00
73103;BME280;61294;65.988;29.172;2023-12-14T12:08:50;98690.56;;;-11.85;100.00
73103;BME280;61294;65.988;29.172;2023-12-14T12:11:17;98697.94;;;-11.88;100.00
73103;BME280;61294;65.988;29.172;2023-12-14T12:13:43;98687.78;;;-11.88;100.00
73103;BME280;61294;65.988;29.172;2023-12-14T12:16:09;98683.06;;;-11.83;100.00
73103;BME280;61294;65.988;29.172;2023-12-14T12:18:35;98690.19;;;-11.79;100.00
73103;BME280;61294;65.988;29.172;2023-12-14T12:21:03;98693.25;;;-11.83;100.00
73103;BME280;61294;65.988;29.172;2023-12-14T12:23:31;98699.72;;;-11.87;100.00
73103;BME280;61294;65.988;29.172;2023-12-14T12:25:57;98671.03;;;-11.96;100.00
73103;BME280;61294;65.988;29.172;2023-12-14T12:28:23;98707.59;;;-11.84;100.00
73103;BME280;61294;65.988;29.172;2023-12-14T12:30:49;98702.78;;;-11.81;100.00
73103;BME280;61294;65.988;29.172;2023-12-14T12:33:15;98708.09;;;-11.77;100.00